createdAt,value
2022-10-05T00:00:53.382Z,99.90
2022-10-05T00:03:22.552Z,99.90
2022-10-05T00:05:49.759Z,99.90
2022-10-05T00:08:25.357Z,99.90
2022-10-05T00:10:52.583Z,99.90
2022-10-05T00:13:25.799Z,99.90
2022-10-05T00:16:13.451Z,99.90
2022-10-05T00:18:40.917Z,99.90
2022-10-05T00:21:23.305Z,99.90
2022-10-05T00:23:51.081Z,99.90
2022-10-05T00:26:24.348Z,99.90
2022-10-05T00:28:52.503Z,99.90
2022-10-05T00:31:30.591Z,99.90
2022-10-05T00:33:58.135Z,99.90
2022-10-05T00:36:26.280Z,99.90
2022-10-05T00:38:54.128Z,99.90
2022-10-05T00:41:44.800Z,99.90
2022-10-05T00:44:42.549Z,99.90
2022-10-05T00:47:29.692Z,99.90
2022-10-05T00:50:18.086Z,99.90
2022-10-05T00:53:01.414Z,99.90
2022-10-05T00:55:31.101Z,99.90
2022-10-05T00:58:19.760Z,99.90
2022-10-05T01:01:01.939Z,99.90
2022-10-05T01:04:10.293Z,99.90
2022-10-05T01:06:47.523Z,99.90
2022-10-05T01:09:26.828Z,99.90
2022-10-05T01:12:15.235Z,99.90
2022-10-05T01:15:00.808Z,99.90
2022-10-05T01:17:49.261Z,99.90
2022-10-05T01:20:31.045Z,99.90
2022-10-05T01:23:09.259Z,99.90
2022-10-05T01:25:44.993Z,99.90
2022-10-05T01:28:18.870Z,99.90
2022-10-05T01:31:01.719Z,99.90
2022-10-05T01:33:41.636Z,99.90
2022-10-05T01:36:23.524Z,99.90
2022-10-05T01:38:56.446Z,99.90
2022-10-05T01:41:44.935Z,99.90
2022-10-05T01:44:16.251Z,99.90
2022-10-05T01:47:06.960Z,99.90
2022-10-05T01:49:38.823Z,99.90
2022-10-05T01:52:17.328Z,99.90
2022-10-05T01:55:16.130Z,99.90
2022-10-05T01:57:55.052Z,99.90
2022-10-05T02:00:21.980Z,99.90
2022-10-05T02:03:04.651Z,99.90
2022-10-05T02:05:56.359Z,99.90
2022-10-05T02:08:38.247Z,99.90
2022-10-05T02:11:09.179Z,99.90
2022-10-05T02:13:48.958Z,99.90
2022-10-05T02:16:37.607Z,99.90
2022-10-05T02:19:22.523Z,99.90
2022-10-05T02:21:58.489Z,99.90
2022-10-05T02:24:29.772Z,99.90
2022-10-05T02:26:57.853Z,99.90
2022-10-05T02:29:28.275Z,99.90
2022-10-05T02:32:14.487Z,99.90
2022-10-05T02:34:42.644Z,99.90
2022-10-05T02:37:21.346Z,99.90
2022-10-05T02:39:57.221Z,99.90
2022-10-05T02:42:32.658Z,99.90
2022-10-05T02:45:11.682Z,99.90
2022-10-05T02:47:55.511Z,99.90
2022-10-05T02:50:27.106Z,99.90
2022-10-05T02:53:06.077Z,99.90
2022-10-05T02:55:38.901Z,99.90
2022-10-05T02:58:19.296Z,99.90
2022-10-05T03:00:50.516Z,99.90
2022-10-05T03:03:37.727Z,99.90
2022-10-05T03:06:13.043Z,99.90
2022-10-05T03:08:50.189Z,99.90
2022-10-05T03:11:41.149Z,99.90
2022-10-05T03:14:40.917Z,99.90
2022-10-05T03:17:56.812Z,99.90
2022-10-05T03:20:45.598Z,99.90
2022-10-05T03:23:40.655Z,99.90
2022-10-05T03:26:42.326Z,99.90
2022-10-05T03:29:25.787Z,99.90
2022-10-05T03:32:31.236Z,99.90
2022-10-05T03:35:18.531Z,99.90
2022-10-05T03:37:53.369Z,99.90
2022-10-05T03:40:39.805Z,99.90
2022-10-05T03:43:21.556Z,99.90
2022-10-05T03:46:12.730Z,99.90
2022-10-05T03:49:00.880Z,99.90
2022-10-05T03:51:48.549Z,99.90
2022-10-05T03:54:18.049Z,99.90
2022-10-05T03:56:54.674Z,99.90
2022-10-05T03:59:32.744Z,99.90
2022-10-05T04:02:07.368Z,99.90
2022-10-05T04:04:57.535Z,99.90
2022-10-05T04:07:37.868Z,99.90
2022-10-05T04:10:13.019Z,99.90
2022-10-05T04:12:44.148Z,99.90
2022-10-05T04:15:40.621Z,99.90
2022-10-05T04:18:31.398Z,99.90
2022-10-05T04:21:06.690Z,99.90
2022-10-05T04:23:49.456Z,99.90
2022-10-05T04:26:22.408Z,99.90
2022-10-05T04:28:55.757Z,99.90
2022-10-05T04:31:41.669Z,99.90
2022-10-05T04:34:27.181Z,99.90
2022-10-05T04:37:01.444Z,99.90
2022-10-05T04:39:48.593Z,99.90
2022-10-05T04:42:36.842Z,99.90
2022-10-05T04:45:45.177Z,99.90
2022-10-05T04:48:14.862Z,99.90
2022-10-05T04:50:49.967Z,99.90
2022-10-05T04:53:58.567Z,99.90
2022-10-05T04:56:42.304Z,99.90
2022-10-05T04:59:36.507Z,99.90
2022-10-05T05:02:47.700Z,99.90
2022-10-05T05:05:23.449Z,99.90
2022-10-05T05:07:50.204Z,99.90
2022-10-05T05:10:41.577Z,99.90
2022-10-05T05:13:26.328Z,99.90
2022-10-05T05:16:21.839Z,99.90
2022-10-05T05:19:07.434Z,99.90
2022-10-05T05:21:54.177Z,99.90
2022-10-05T05:24:27.507Z,99.90
2022-10-05T05:27:10.616Z,99.90
2022-10-05T05:30:11.513Z,99.90
2022-10-05T05:33:16.059Z,99.90
2022-10-05T05:36:11.009Z,99.90
2022-10-05T05:38:55.980Z,99.90
2022-10-05T05:41:37.042Z,99.90
2022-10-05T05:44:06.150Z,99.90
2022-10-05T05:47:01.742Z,99.90
2022-10-05T05:49:40.677Z,99.90
2022-10-05T05:52:24.359Z,99.90
2022-10-05T05:55:17.190Z,99.90
2022-10-05T05:57:50.846Z,99.90
2022-10-05T06:00:29.695Z,99.90
2022-10-05T06:03:25.923Z,99.90
2022-10-05T06:06:06.393Z,99.90
2022-10-05T06:08:45.003Z,99.90
2022-10-05T06:29:39.565Z,99.90
2022-10-05T06:33:07.178Z,99.90
2022-10-05T06:36:13.365Z,99.90
2022-10-05T06:39:24.222Z,99.90
2022-10-05T06:42:34.588Z,98.40
2022-10-05T06:45:17.604Z,97.80
2022-10-05T06:48:05.134Z,96.60
2022-10-05T06:50:49.587Z,97.70
2022-10-05T06:53:35.577Z,98.00
2022-10-05T06:56:11.819Z,95.60
2022-10-05T06:59:05.648Z,92.50
2022-10-05T07:01:47.262Z,83.80
2022-10-05T07:04:55.779Z,77.60
2022-10-05T07:07:44.078Z,72.60
2022-10-05T07:12:59.803Z,65.70
2022-10-05T07:16:26.221Z,64.30
2022-10-05T07:19:04.880Z,63.70
2022-10-05T07:22:00.675Z,62.90
2022-10-05T07:24:48.658Z,61.70
2022-10-05T07:37:40.271Z,56.50
2022-10-05T07:40:40.419Z,56.80
2022-10-05T07:44:01.048Z,55.20
2022-10-05T07:46:52.073Z,53.20
2022-10-05T07:49:43.909Z,52.50
2022-10-05T07:52:23.850Z,49.30
2022-10-05T07:55:12.484Z,48.50
2022-10-05T07:58:02.710Z,47.50
2022-10-05T08:01:00.690Z,48.40
2022-10-05T08:03:48.385Z,47.30
2022-10-05T08:06:40.712Z,46.40
2022-10-05T08:09:19.591Z,46.70
2022-10-05T08:12:01.569Z,46.90
2022-10-05T08:14:33.839Z,46.00
2022-10-05T08:17:11.937Z,46.00
2022-10-05T08:19:54.283Z,46.40
2022-10-05T08:22:29.270Z,45.10
2022-10-05T08:25:01.935Z,44.20
2022-10-05T08:27:35.404Z,43.50
2022-10-05T08:30:10.457Z,43.70
2022-10-05T08:32:55.505Z,43.20
2022-10-05T08:35:27.655Z,41.80
2022-10-05T08:37:56.530Z,42.40
2022-10-05T08:41:02.962Z,41.20
2022-10-05T08:44:04.978Z,41.20
2022-10-05T08:46:52.143Z,42.00
2022-10-05T08:49:43.391Z,41.50
2022-10-05T08:52:40.435Z,41.90
2022-10-05T08:55:10.951Z,40.50
2022-10-05T08:57:40.556Z,40.90
2022-10-05T09:00:17.869Z,40.80
2022-10-05T09:03:16.499Z,41.10
2022-10-05T09:05:58.899Z,39.10
2022-10-05T09:08:45.785Z,37.20
2022-10-05T09:11:33.379Z,38.30
2022-10-05T09:14:29.075Z,38.70
2022-10-05T09:17:39.338Z,38.30
2022-10-05T09:20:44.393Z,38.20
2022-10-05T09:23:15.302Z,38.60
2022-10-05T09:26:07.635Z,39.80
2022-10-05T09:29:15.514Z,40.30
2022-10-05T09:32:17.039Z,40.40
2022-10-05T09:34:56.382Z,40.60
2022-10-05T09:37:37.497Z,41.40
2022-10-05T09:40:44.869Z,42.10
2022-10-05T09:43:30.766Z,42.40
2022-10-05T09:46:17.062Z,42.30
2022-10-05T09:48:53.195Z,42.90
2022-10-05T09:51:38.854Z,42.90
2022-10-05T09:54:08.490Z,42.60
2022-10-05T09:56:41.226Z,42.50
2022-10-05T09:59:27.341Z,42.50
2022-10-05T10:02:27.706Z,42.60
2022-10-05T10:05:05.958Z,43.50
2022-10-05T10:07:54.740Z,42.40
2022-10-05T10:10:36.578Z,42.40
2022-10-05T10:13:24.205Z,42.00
2022-10-05T10:16:12.980Z,42.50
2022-10-05T10:18:48.911Z,42.60
2022-10-05T10:21:21.608Z,42.60
2022-10-05T10:24:14.987Z,42.90
2022-10-05T10:26:51.046Z,43.10
2022-10-05T10:29:23.747Z,42.90
2022-10-05T10:32:36.937Z,43.50
2022-10-05T10:35:34.703Z,43.10
2022-10-05T10:38:07.340Z,42.60
2022-10-05T10:41:11.996Z,42.50
2022-10-05T10:43:57.761Z,43.00
2022-10-05T10:46:46.516Z,43.00
2022-10-05T10:49:15.769Z,44.10
2022-10-05T10:52:05.296Z,44.60
2022-10-05T10:54:42.789Z,44.70
2022-10-05T10:57:15.454Z,45.10
2022-10-05T11:00:00.709Z,45.20
2022-10-05T11:02:48.477Z,45.50
2022-10-05T11:05:30.201Z,45.00
2022-10-05T11:08:22.378Z,44.40
2022-10-05T11:10:59.075Z,44.70
2022-10-05T11:14:07.546Z,45.30
2022-10-05T11:16:58.286Z,45.50
2022-10-05T11:19:40.288Z,45.80
2022-10-05T11:22:38.372Z,45.80
2022-10-05T11:25:35.684Z,45.30
2022-10-05T11:28:40.073Z,44.50
2022-10-05T11:31:25.669Z,44.80
2022-10-05T11:34:08.031Z,44.30
2022-10-05T11:36:59.643Z,44.60
2022-10-05T11:39:43.878Z,45.30
2022-10-05T11:42:39.793Z,45.20
2022-10-05T11:45:54.779Z,45.80
2022-10-05T11:48:40.302Z,47.10
2022-10-05T11:51:19.463Z,45.80
2022-10-05T11:54:01.253Z,45.50
2022-10-05T11:56:36.122Z,45.90
2022-10-05T11:59:12.788Z,46.50
2022-10-05T12:02:05.795Z,45.80
2022-10-05T12:05:03.634Z,45.20
2022-10-05T12:07:40.768Z,44.90
2022-10-05T12:10:52.201Z,44.50
2022-10-05T12:13:41.504Z,44.00
2022-10-05T12:16:36.535Z,44.10
2022-10-05T12:19:34.792Z,45.90
2022-10-05T12:22:10.027Z,46.90
2022-10-05T12:24:36.902Z,45.50
2022-10-05T12:27:16.074Z,46.70
2022-10-05T12:30:07.750Z,46.10
2022-10-05T12:32:40.471Z,44.60
2022-10-05T12:35:13.390Z,43.90
2022-10-05T12:37:52.314Z,43.80
2022-10-05T12:40:59.225Z,44.00
2022-10-05T12:43:26.018Z,43.50
2022-10-05T12:46:07.980Z,43.50
2022-10-05T12:48:37.776Z,43.10
2022-10-05T12:51:15.917Z,43.30
2022-10-05T12:53:57.603Z,42.70
2022-10-05T12:57:10.274Z,43.00
2022-10-05T12:59:52.709Z,43.10
2022-10-05T13:02:42.442Z,43.80
2022-10-05T13:05:09.332Z,45.10
2022-10-05T13:08:05.861Z,44.60
2022-10-05T13:11:02.162Z,43.80
2022-10-05T13:14:02.641Z,44.30
2022-10-05T13:16:46.202Z,44.00
2022-10-05T13:19:36.873Z,44.20
2022-10-05T13:22:36.631Z,44.00
2022-10-05T13:25:44.516Z,44.00
2022-10-05T13:28:49.547Z,44.00
2022-10-05T13:31:43.649Z,44.60
2022-10-05T13:34:22.633Z,44.20
2022-10-05T13:37:18.284Z,43.30
2022-10-05T13:39:57.037Z,43.30
2022-10-05T13:42:39.282Z,43.20
2022-10-05T13:45:38.591Z,44.10
2022-10-05T13:48:47.801Z,44.40
2022-10-05T13:51:38.936Z,43.40
2022-10-05T13:54:40.132Z,43.00
2022-10-05T13:57:30.125Z,42.90
2022-10-05T14:00:14.759Z,43.50
2022-10-05T14:02:47.314Z,43.00
2022-10-05T14:05:19.697Z,42.90
2022-10-05T14:08:18.980Z,43.80
2022-10-05T22:15:32.992Z,99.90
